createdAt,value
2023-04-02T00:01:00.575Z,15.73
2023-04-02T00:02:20.939Z,15.94
2023-04-02T00:03:22.874Z,15.99
2023-04-02T00:04:26.492Z,15.68
2023-04-02T00:05:34.855Z,15.84
2023-04-02T00:06:44.794Z,15.93
2023-04-02T00:07:52.897Z,16.01
2023-04-02T00:08:58.929Z,15.88
2023-04-02T00:10:00.787Z,15.91
2023-04-02T00:11:02.791Z,16.15
2023-04-02T00:12:20.275Z,15.87
2023-04-02T00:13:29.633Z,16.03
2023-04-02T00:14:36.659Z,15.96
2023-04-02T00:15:41.236Z,16.18
2023-04-02T00:16:43.743Z,16.00
2023-04-02T00:17:45.729Z,16.15
2023-04-02T00:18:52.488Z,16.21
2023-04-02T00:20:00.527Z,16.03
2023-04-02T00:21:17.134Z,16.12
2023-04-02T00:22:21.541Z,16.25
2023-04-02T00:23:24.217Z,16.25
2023-04-02T00:24:26.064Z,15.97
2023-04-02T00:25:28.786Z,15.88
2023-04-02T00:26:37.684Z,16.28
2023-04-02T00:27:40.260Z,16.28
2023-04-02T00:28:42.246Z,16.39
2023-04-02T00:29:55.744Z,16.20
2023-04-02T00:31:00.372Z,16.05
2023-04-02T00:32:02.422Z,16.19
2023-04-02T00:33:04.345Z,16.30
2023-04-02T00:34:11.568Z,16.05
2023-04-02T00:35:23.261Z,16.43
2023-04-02T00:36:30.144Z,16.25
2023-04-02T00:37:39.114Z,16.35
2023-04-02T00:38:43.963Z,16.56
2023-04-02T00:39:46.438Z,16.18
2023-04-02T00:40:51.243Z,16.26
2023-04-02T00:42:07.729Z,16.46
2023-04-02T00:43:16.541Z,16.13
2023-04-02T00:44:21.809Z,16.33
2023-04-02T00:45:29.203Z,16.55
2023-04-02T00:46:47.356Z,16.35
2023-04-02T00:47:49.585Z,16.31
2023-04-02T00:49:09.846Z,16.46
2023-04-02T00:50:11.645Z,16.31
2023-04-02T00:51:35.420Z,16.71
2023-04-02T00:52:38.673Z,16.62
2023-04-02T00:53:42.099Z,16.40
2023-04-02T00:54:49.866Z,16.68
2023-04-02T00:55:52.321Z,16.22
2023-04-02T00:56:58.235Z,16.63
2023-04-02T00:58:01.950Z,16.82
2023-04-02T00:59:04.557Z,16.60
2023-04-02T01:00:30.063Z,16.68
2023-04-02T01:01:37.102Z,16.52
2023-04-02T01:02:41.063Z,16.38
2023-04-02T01:03:44.396Z,16.54
2023-04-02T01:05:15.108Z,16.36
2023-04-02T01:06:18.869Z,16.50
2023-04-02T01:07:30.694Z,16.60
2023-04-02T01:08:44.523Z,17.07
2023-04-02T01:10:07.583Z,16.66
2023-04-02T01:11:24.534Z,16.53
2023-04-02T01:12:58.295Z,16.69
2023-04-02T01:14:37.537Z,16.72
2023-04-02T01:15:51.194Z,16.58
2023-04-02T01:17:02.744Z,16.62
2023-04-02T01:18:31.467Z,16.83
2023-04-02T01:19:42.473Z,16.97
2023-04-02T01:21:03.397Z,16.89
2023-04-02T01:22:22.801Z,16.78
2023-04-02T01:23:28.797Z,16.88
2023-04-02T01:24:33.839Z,17.08
2023-04-02T01:25:42.784Z,16.73
2023-04-02T01:27:02.315Z,16.56
2023-04-02T01:28:10.754Z,17.15
2023-04-02T01:29:14.308Z,16.90
2023-04-02T01:30:18.368Z,17.00
2023-04-02T01:31:22.597Z,17.27
2023-04-02T01:32:27.684Z,17.11
2023-04-02T01:33:33.965Z,17.17
2023-04-02T01:34:36.705Z,17.11
2023-04-02T01:35:44.751Z,17.08
2023-04-02T01:36:56.337Z,16.90
2023-04-02T01:38:24.089Z,17.22
2023-04-02T01:39:50.507Z,17.09
2023-04-02T01:41:02.798Z,16.77
2023-04-02T01:42:26.324Z,16.74
2023-04-02T01:43:41.440Z,17.33
2023-04-02T01:44:48.498Z,17.30
2023-04-02T01:45:50.773Z,17.06
2023-04-02T01:46:52.972Z,17.22
2023-04-02T01:47:55.596Z,16.89
2023-04-02T01:49:01.440Z,17.36
2023-04-02T01:50:23.769Z,17.44
2023-04-02T01:51:34.110Z,17.00
2023-04-02T01:52:42.809Z,16.79
2023-04-02T01:53:46.685Z,17.26
2023-04-02T01:54:51.633Z,17.15
2023-04-02T01:55:57.306Z,17.25
2023-04-02T01:56:59.203Z,17.13
2023-04-02T01:58:02.144Z,17.24
2023-04-02T01:59:06.015Z,17.21
2023-04-02T02:00:15.367Z,17.08
2023-04-02T02:01:27.710Z,17.25
2023-04-02T02:02:29.848Z,17.36
2023-04-02T02:03:32.420Z,17.32
2023-04-02T02:04:35.126Z,17.51
2023-04-02T02:05:37.589Z,17.37
2023-04-02T02:06:40.093Z,17.24
2023-04-02T02:07:42.422Z,17.15
2023-04-02T02:08:54.905Z,17.24
2023-04-02T02:09:57.068Z,17.44
2023-04-02T02:10:59.663Z,17.43
2023-04-02T02:12:04.062Z,17.28
2023-04-02T02:13:06.890Z,17.33
2023-04-02T02:14:26.846Z,17.38
2023-04-02T02:15:28.956Z,17.44
2023-04-02T02:16:32.066Z,17.52
2023-04-02T02:17:34.962Z,17.44
2023-04-02T02:18:37.150Z,17.46
2023-04-02T02:19:50.317Z,17.28
2023-04-02T02:20:53.226Z,17.68
2023-04-02T02:22:04.281Z,17.57
2023-04-02T02:23:07.213Z,17.48
2023-04-02T02:24:31.793Z,17.30
2023-04-02T02:25:36.329Z,17.24
2023-04-02T02:26:40.005Z,17.17
2023-04-02T02:28:13.980Z,17.43
2023-04-02T02:29:19.382Z,17.22
2023-04-02T02:30:48.841Z,17.37
2023-04-02T02:31:55.159Z,17.42
2023-04-02T02:33:03.700Z,17.56
2023-04-02T02:34:19.316Z,17.00
2023-04-02T02:35:31.624Z,17.23
2023-04-02T02:36:52.862Z,17.22
2023-04-02T02:38:02.872Z,17.38
2023-04-02T02:39:31.964Z,16.96
2023-04-02T02:40:43.669Z,17.42
2023-04-02T02:41:50.300Z,17.21
2023-04-02T02:42:58.068Z,17.37
2023-04-02T02:44:06.900Z,17.52
2023-04-02T02:45:18.317Z,17.45
2023-04-02T02:46:25.740Z,17.16
2023-04-02T02:47:31.526Z,17.31
2023-04-02T02:48:39.427Z,17.66
2023-04-02T02:49:45.134Z,17.38
2023-04-02T02:50:48.572Z,17.45
2023-04-02T02:52:00.551Z,17.41
2023-04-02T02:53:20.598Z,17.30
2023-04-02T02:54:23.237Z,17.49
2023-04-02T02:55:29.578Z,17.41
2023-04-02T02:56:52.805Z,17.61
2023-04-02T02:58:06.872Z,17.40
2023-04-02T02:59:17.198Z,17.10
2023-04-02T03:00:19.985Z,17.60
2023-04-02T03:01:22.874Z,17.33
2023-04-02T03:02:28.984Z,17.56
2023-04-02T03:03:34.605Z,17.48
2023-04-02T03:04:38.873Z,17.47
2023-04-02T03:06:02.157Z,17.40
2023-04-02T03:07:06.195Z,17.51
2023-04-02T03:08:22.141Z,17.70
2023-04-02T03:09:33.434Z,17.65
2023-04-02T03:10:44.299Z,17.45
2023-04-02T03:12:06.666Z,17.69
2023-04-02T03:13:14.780Z,17.41
2023-04-02T03:14:37.207Z,17.67
2023-04-02T03:15:47.834Z,17.45
2023-04-02T03:16:58.702Z,17.57
2023-04-02T03:18:07.464Z,17.50
2023-04-02T03:19:18.124Z,17.44
2023-04-02T03:20:32.580Z,17.43
2023-04-02T03:22:19.520Z,17.50
2023-04-02T03:23:35.295Z,17.43
2023-04-02T03:24:45.758Z,17.48
2023-04-02T03:25:56.330Z,17.21
2023-04-02T03:27:21.364Z,17.51
2023-04-02T03:28:28.942Z,17.41
2023-04-02T03:29:34.599Z,17.56
2023-04-02T03:30:46.273Z,17.72
2023-04-02T03:31:59.586Z,17.75
2023-04-02T03:33:11.612Z,17.37
2023-04-02T03:34:32.925Z,17.81
2023-04-02T03:35:46.644Z,17.52
2023-04-02T03:37:00.338Z,17.27
2023-04-02T03:38:16.079Z,17.47
2023-04-02T03:39:27.230Z,17.37
2023-04-02T03:40:35.336Z,17.73
2023-04-02T03:41:49.285Z,17.34
2023-04-02T03:43:02.242Z,17.48
2023-04-02T03:44:15.375Z,17.73
2023-04-02T03:45:22.723Z,17.64
2023-04-02T03:46:24.869Z,17.50
2023-04-02T03:47:43.738Z,17.58
2023-04-02T03:48:52.524Z,17.82
2023-04-02T03:50:11.761Z,17.69
2023-04-02T03:51:42.728Z,17.36
2023-04-02T03:52:45.113Z,17.44
2023-04-02T03:53:49.644Z,17.63
2023-04-02T03:54:53.802Z,17.61
2023-04-02T03:55:57.517Z,17.94
2023-04-02T03:57:00.286Z,17.71
2023-04-02T03:58:19.285Z,17.65
2023-04-02T03:59:39.691Z,17.69
2023-04-02T04:01:00.538Z,17.70
2023-04-02T04:02:39.928Z,17.35
2023-04-02T04:03:47.118Z,17.45
2023-04-02T04:04:50.993Z,17.72
2023-04-02T04:06:15.819Z,17.77
2023-04-02T04:07:28.711Z,17.61
2023-04-02T04:08:42.744Z,17.51
2023-04-02T04:09:47.000Z,17.61
2023-04-02T04:10:59.057Z,17.91
2023-04-02T04:12:23.596Z,17.83
2023-04-02T04:13:35.400Z,17.78
2023-04-02T04:14:44.841Z,17.46
2023-04-02T04:16:02.886Z,17.50
2023-04-02T04:17:24.950Z,17.78
2023-04-02T04:18:35.057Z,17.64
2023-04-02T04:19:45.612Z,17.71
2023-04-02T04:20:58.662Z,17.81
2023-04-02T04:22:15.253Z,17.78
2023-04-02T04:23:30.246Z,17.88
2023-04-02T04:24:39.317Z,17.42
2023-04-02T04:25:42.066Z,17.60
2023-04-02T04:27:36.051Z,17.93
2023-04-02T04:29:05.799Z,17.50
2023-04-02T04:30:22.961Z,17.62
2023-04-02T04:31:34.146Z,17.46
2023-04-02T04:32:50.209Z,17.83
2023-04-02T04:34:05.288Z,17.75
2023-04-02T04:35:25.120Z,17.85
2023-04-02T04:36:32.162Z,17.54
2023-04-02T04:37:45.120Z,17.97
2023-04-02T04:38:55.633Z,17.93
2023-04-02T04:40:07.601Z,17.64
2023-04-02T04:41:22.684Z,17.89
2023-04-02T04:42:31.108Z,18.00
2023-04-02T04:43:51.113Z,17.42
2023-04-02T04:45:07.781Z,17.88
2023-04-02T04:46:14.881Z,17.92
2023-04-02T04:47:21.382Z,17.66
2023-04-02T04:48:36.514Z,18.05
2023-04-02T04:49:39.200Z,17.91
2023-04-02T04:51:01.411Z,17.89
2023-04-02T04:52:14.337Z,17.63
2023-04-02T04:53:21.824Z,17.86
2023-04-02T04:54:28.470Z,17.82
2023-04-02T04:55:39.691Z,17.96
2023-04-02T04:56:50.379Z,17.78
2023-04-02T04:57:57.898Z,18.05
2023-04-02T04:58:59.819Z,17.77
2023-04-02T05:00:13.050Z,17.90
2023-04-02T05:01:37.858Z,17.88
2023-04-02T05:02:57.407Z,17.82
2023-04-02T05:04:24.498Z,17.76
2023-04-02T05:05:37.894Z,17.59
2023-04-02T05:07:00.964Z,17.63
2023-04-02T05:08:30.285Z,17.98
2023-04-02T05:09:53.870Z,17.72
2023-04-02T05:11:01.309Z,17.88
2023-04-02T05:12:35.239Z,17.67
2023-04-02T05:13:54.296Z,17.58
2023-04-02T05:15:12.756Z,17.69
2023-04-02T05:16:23.596Z,17.51
2023-04-02T05:17:36.275Z,17.82
2023-04-02T05:18:41.130Z,17.94
2023-04-02T05:19:56.967Z,17.89
2023-04-02T05:21:44.139Z,17.53
2023-04-02T05:22:53.431Z,17.72
2023-04-02T05:24:03.832Z,17.79
2023-04-02T05:25:24.976Z,17.92
2023-04-02T05:26:41.956Z,17.66
2023-04-02T05:27:52.859Z,17.74
2023-04-02T05:29:03.323Z,17.80
2023-04-02T05:30:18.170Z,17.97
2023-04-02T05:31:40.906Z,17.90
2023-04-02T05:32:48.437Z,18.32
2023-04-02T05:33:50.835Z,18.10
2023-04-02T05:34:57.048Z,18.14
2023-04-02T05:36:01.545Z,18.30
2023-04-02T05:37:09.187Z,18.49
2023-04-02T05:38:22.752Z,17.93
2023-04-02T05:39:27.260Z,18.08
2023-04-02T05:40:40.115Z,18.00
2023-04-02T05:41:47.576Z,18.37
2023-04-02T05:43:03.796Z,18.12
2023-04-02T05:44:27.695Z,18.12
2023-04-02T05:45:39.642Z,18.23
2023-04-02T05:46:58.131Z,18.04
2023-04-02T05:48:07.482Z,17.98
2023-04-02T05:49:31.997Z,18.09
2023-04-02T05:50:40.421Z,17.83
2023-04-02T05:51:52.160Z,18.16
2023-04-02T05:53:02.235Z,18.36
2023-04-02T05:54:06.763Z,17.99
2023-04-02T05:55:17.157Z,17.88
2023-04-02T05:56:32.096Z,17.88
2023-04-02T05:57:49.526Z,18.11
2023-04-02T05:59:11.599Z,18.00
2023-04-02T06:00:39.765Z,18.18
2023-04-02T06:02:04.444Z,18.21
2023-04-02T06:03:38.962Z,17.56
2023-04-02T06:05:02.180Z,17.66
2023-04-02T06:06:15.637Z,18.01
2023-04-02T06:07:28.538Z,17.98
2023-04-02T06:08:50.375Z,17.96
2023-04-02T06:10:17.874Z,17.92
2023-04-02T06:11:28.761Z,18.09
2023-04-02T06:12:46.091Z,17.90
2023-04-02T06:13:48.462Z,18.05
2023-04-02T06:14:51.190Z,17.85
2023-04-02T06:15:53.348Z,17.83
2023-04-02T06:17:00.220Z,18.05
2023-04-02T06:18:24.953Z,18.08
2023-04-02T06:19:33.002Z,18.11
2023-04-02T06:20:35.209Z,17.87
2023-04-02T06:21:45.124Z,17.40
2023-04-02T06:22:55.756Z,17.73
2023-04-02T06:24:03.537Z,17.85
2023-04-02T06:25:24.191Z,17.74
2023-04-02T06:26:35.311Z,17.73
2023-04-02T06:27:40.137Z,17.69
2023-04-02T06:28:56.625Z,17.43
2023-04-02T06:30:05.701Z,17.69
2023-04-02T06:31:30.707Z,17.46
2023-04-02T06:32:33.190Z,17.51
2023-04-02T06:33:35.580Z,17.46
2023-04-02T06:34:39.860Z,17.49
2023-04-02T06:35:47.559Z,17.63
2023-04-02T06:37:02.572Z,17.18
2023-04-02T06:38:12.356Z,17.38
2023-04-02T06:39:26.157Z,17.32
2023-04-02T06:40:32.209Z,17.40
2023-04-02T06:41:37.687Z,17.10
2023-04-02T06:42:59.763Z,17.25
2023-04-02T06:44:21.179Z,17.39
2023-04-02T06:45:42.194Z,16.97
2023-04-02T06:47:44.572Z,16.66
2023-04-02T06:48:59.404Z,16.78
2023-04-02T06:50:15.142Z,16.99
2023-04-02T06:51:21.180Z,16.74
2023-04-02T06:52:58.042Z,16.62
2023-04-02T06:54:00.639Z,16.80
2023-04-02T06:55:26.289Z,16.72
2023-04-02T06:56:52.015Z,16.81
2023-04-02T06:58:03.906Z,16.46
2023-04-02T06:59:07.548Z,16.84
2023-04-02T07:00:26.060Z,16.72
2023-04-02T07:01:30.877Z,16.72
2023-04-02T07:02:39.926Z,16.71
2023-04-02T07:03:44.801Z,16.44
2023-04-02T07:05:02.170Z,16.76
2023-04-02T07:06:05.418Z,16.66
2023-04-02T07:07:09.186Z,16.44
2023-04-02T07:08:14.010Z,16.45
2023-04-02T07:09:15.965Z,16.63
2023-04-02T07:10:21.885Z,16.67
2023-04-02T07:11:23.893Z,16.54
2023-04-02T07:12:28.887Z,16.66
2023-04-02T07:13:30.896Z,16.59
2023-04-02T07:14:32.756Z,16.61
2023-04-02T07:15:35.063Z,16.47
2023-04-02T07:16:37.396Z,16.37
2023-04-02T07:17:39.932Z,16.58
2023-04-02T07:18:42.570Z,16.63
2023-04-02T07:19:45.800Z,16.56
2023-04-02T07:20:47.803Z,16.39
2023-04-02T07:21:50.684Z,16.53
2023-04-02T07:22:54.596Z,16.36
2023-04-02T07:23:56.663Z,16.52
2023-04-02T07:24:58.820Z,16.43
2023-04-02T07:26:02.412Z,16.37
2023-04-02T07:27:04.268Z,16.17
2023-04-02T07:28:06.380Z,16.50
2023-04-02T07:29:13.646Z,16.32
2023-04-02T07:30:15.958Z,16.18
2023-04-02T07:31:19.229Z,16.29
2023-04-02T07:32:21.137Z,16.42
2023-04-02T07:33:26.880Z,16.07
2023-04-02T07:34:28.733Z,16.34
2023-04-02T07:35:30.598Z,16.22
2023-04-02T07:36:32.477Z,16.02
2023-04-02T07:37:34.321Z,16.17
2023-04-02T07:38:36.298Z,16.05
2023-04-02T07:39:40.118Z,16.34
2023-04-02T07:40:42.576Z,16.41
2023-04-02T07:41:52.615Z,16.21
2023-04-02T07:42:54.385Z,16.01
2023-04-02T07:43:56.304Z,16.25
2023-04-02T07:44:58.164Z,16.11
2023-04-02T07:46:00.196Z,15.99
2023-04-02T07:47:02.114Z,16.31
2023-04-02T07:48:08.554Z,16.43
2023-04-02T07:49:10.493Z,16.34
2023-04-02T07:50:12.337Z,16.25
2023-04-02T07:51:26.660Z,16.16
2023-04-02T07:52:28.536Z,16.09
2023-04-02T07:53:38.734Z,16.09
2023-04-02T07:54:40.506Z,16.09
2023-04-02T07:55:42.742Z,16.34
2023-04-02T07:56:44.719Z,16.11
2023-04-02T07:57:55.816Z,16.46
2023-04-02T07:58:57.750Z,16.02
2023-04-02T07:59:59.525Z,16.12
2023-04-02T08:01:01.870Z,16.33
2023-04-02T08:02:04.512Z,16.40
2023-04-02T08:03:07.073Z,16.01
2023-04-02T08:04:17.391Z,16.18
2023-04-02T08:05:19.432Z,16.07
2023-04-02T08:06:22.072Z,16.31
2023-04-02T08:07:23.974Z,16.49
2023-04-02T08:08:26.334Z,16.17
2023-04-02T08:09:28.105Z,16.29
2023-04-02T08:10:29.939Z,16.06
2023-04-02T08:11:32.202Z,16.20
2023-04-02T08:12:33.994Z,16.32
2023-04-02T08:13:36.525Z,16.11
2023-04-02T08:14:38.460Z,16.08
2023-04-02T08:15:40.426Z,15.94
2023-04-02T08:16:53.948Z,16.35
2023-04-02T08:17:55.925Z,16.00
2023-04-02T08:18:57.705Z,16.18
2023-04-02T08:20:01.259Z,16.28
2023-04-02T08:21:05.455Z,16.16
2023-04-02T08:22:07.321Z,16.08
2023-04-02T08:23:18.012Z,16.48
2023-04-02T08:24:20.471Z,16.01
2023-04-02T08:25:22.318Z,15.91
2023-04-02T08:26:24.124Z,15.90
2023-04-02T08:27:26.438Z,16.27
2023-04-02T08:28:28.330Z,16.17
2023-04-02T08:29:32.334Z,16.12
2023-04-02T08:30:34.937Z,16.29
2023-04-02T08:31:36.840Z,16.04
2023-04-02T08:32:41.159Z,16.31
2023-04-02T08:33:43.162Z,16.30
2023-04-02T08:34:45.597Z,16.27
2023-04-02T08:35:48.807Z,16.17
2023-04-02T08:36:51.225Z,16.12
2023-04-02T08:37:52.975Z,15.89
2023-04-02T08:38:54.827Z,16.04
2023-04-02T08:39:56.705Z,16.08
2023-04-02T08:41:02.777Z,15.93
2023-04-02T08:42:16.580Z,15.91
2023-04-02T08:43:40.975Z,15.88
2023-04-02T08:45:25.348Z,15.94
2023-04-02T08:46:59.991Z,16.05
2023-04-02T08:48:03.559Z,16.21
2023-04-02T08:49:13.990Z,15.99
2023-04-02T08:50:36.017Z,16.01
2023-04-02T08:51:38.207Z,15.88
2023-04-02T08:52:40.147Z,16.03
2023-04-02T08:53:42.234Z,15.84
2023-04-02T08:54:44.085Z,15.76
2023-04-02T08:55:59.936Z,15.87
2023-04-02T08:57:11.700Z,15.88
2023-04-02T08:58:44.567Z,15.71
2023-04-02T08:59:47.968Z,15.96
2023-04-02T09:00:54.381Z,15.73
2023-04-02T09:02:24.036Z,15.81
2023-04-02T09:03:42.905Z,16.01
2023-04-02T09:04:45.092Z,15.76
2023-04-02T09:05:49.846Z,15.96
2023-04-02T09:06:55.426Z,16.00
2023-04-02T09:08:02.122Z,15.60
2023-04-02T09:09:05.172Z,15.86
2023-04-02T09:10:07.346Z,16.03
2023-04-02T09:11:22.741Z,15.71
2023-04-02T09:12:28.867Z,15.94
2023-04-02T09:13:33.308Z,15.93
2023-04-02T09:14:59.801Z,15.63
2023-04-02T09:16:06.267Z,15.79
2023-04-02T09:17:20.325Z,15.54
2023-04-02T09:18:22.226Z,15.31
2023-04-02T09:19:36.663Z,15.89
2023-04-02T09:20:39.329Z,15.79
2023-04-02T09:21:45.926Z,15.59
2023-04-02T09:22:51.128Z,15.87
2023-04-02T09:23:52.894Z,15.68
2023-04-02T09:24:59.801Z,15.76
2023-04-02T09:26:04.433Z,15.74
2023-04-02T09:27:21.275Z,15.72
2023-04-02T09:28:26.452Z,15.94
2023-04-02T09:29:42.903Z,16.06
2023-04-02T09:31:00.990Z,15.95
2023-04-02T09:32:12.805Z,15.99
2023-04-02T09:33:14.623Z,15.71
2023-04-02T09:34:36.179Z,15.88
2023-04-02T09:35:55.678Z,15.63
2023-04-02T09:37:07.465Z,15.81
2023-04-02T09:38:20.657Z,15.63
2023-04-02T09:39:26.361Z,15.73
2023-04-02T09:40:32.344Z,15.85
2023-04-02T09:41:37.099Z,15.75
2023-04-02T09:42:39.091Z,15.63
2023-04-02T09:43:42.193Z,15.70
2023-04-02T09:44:43.987Z,15.89
2023-04-02T09:46:00.153Z,15.70
2023-04-02T09:47:05.834Z,15.62
2023-04-02T09:48:30.939Z,15.88
2023-04-02T09:49:35.611Z,15.88
2023-04-02T09:50:37.770Z,15.97
2023-04-02T09:51:39.628Z,15.69
2023-04-02T09:52:41.589Z,15.71
2023-04-02T09:53:49.444Z,15.65
2023-04-02T09:55:19.220Z,15.99
2023-04-02T09:56:27.044Z,15.60
2023-04-02T09:57:29.682Z,15.91
2023-04-02T09:58:31.776Z,15.58
2023-04-02T09:59:33.645Z,15.82
2023-04-02T10:00:35.658Z,15.67
2023-04-02T10:02:00.825Z,15.78
2023-04-02T10:03:21.657Z,15.81
2023-04-02T10:04:47.689Z,15.89
2023-04-02T10:06:14.257Z,15.84
2023-04-02T10:07:38.722Z,15.61
2023-04-02T10:08:45.603Z,15.67
2023-04-02T10:09:58.092Z,15.83
2023-04-02T10:11:03.529Z,15.99
2023-04-02T10:12:11.667Z,15.76
2023-04-02T10:13:35.765Z,15.73
2023-04-02T10:14:43.415Z,15.71
2023-04-02T10:16:01.058Z,15.52
2023-04-02T10:17:23.287Z,15.42
2023-04-02T10:18:38.950Z,15.73
2023-04-02T10:19:45.983Z,15.49
2023-04-02T10:20:51.415Z,15.77
2023-04-02T10:21:55.731Z,15.90
2023-04-02T10:22:57.548Z,15.92
2023-04-02T10:23:59.784Z,16.16
2023-04-02T10:25:01.615Z,16.04
2023-04-02T10:26:43.404Z,16.24
2023-04-02T10:28:38.556Z,15.95
2023-04-02T10:30:09.509Z,16.15
2023-04-02T10:31:25.580Z,16.03
2023-04-02T10:32:51.375Z,16.08
2023-04-02T10:34:02.753Z,16.27
2023-04-02T10:35:12.214Z,15.94
2023-04-02T10:36:40.202Z,15.95
2023-04-02T10:38:04.133Z,16.33
2023-04-02T10:39:12.069Z,16.32
2023-04-02T10:40:17.043Z,16.49
2023-04-02T10:41:41.449Z,16.44
2023-04-02T10:43:07.925Z,16.23
2023-04-02T10:44:32.424Z,16.38
2023-04-02T10:45:52.883Z,16.50
2023-04-02T10:47:16.309Z,16.31
2023-04-02T10:48:18.137Z,16.39
2023-04-02T10:49:44.820Z,16.27
2023-04-02T10:51:30.828Z,16.44
2023-04-02T10:53:06.255Z,16.53
2023-04-02T10:54:32.197Z,16.49
2023-04-02T10:55:42.585Z,16.43
2023-04-02T10:56:51.004Z,16.76
2023-04-02T10:57:56.634Z,16.77
2023-04-02T10:59:05.871Z,16.86
2023-04-02T11:00:10.829Z,16.52
2023-04-02T11:01:19.816Z,16.86
2023-04-02T11:02:36.536Z,16.82
2023-04-02T11:03:44.965Z,16.47
2023-04-02T11:04:47.257Z,16.57
2023-04-02T11:05:57.563Z,16.77
2023-04-02T11:07:17.278Z,16.59
2023-04-02T11:08:42.155Z,16.86
2023-04-02T11:09:47.463Z,16.91
2023-04-02T11:10:56.734Z,17.00
2023-04-02T11:12:01.109Z,16.80
2023-04-02T11:13:30.353Z,16.65
2023-04-02T11:14:32.961Z,16.81
2023-04-02T11:15:36.400Z,16.60
2023-04-02T11:16:42.684Z,17.00
2023-04-02T11:17:47.212Z,16.66
2023-04-02T11:19:08.781Z,16.89
2023-04-02T11:20:49.093Z,16.94
2023-04-02T11:21:58.664Z,16.85
2023-04-02T11:23:17.456Z,16.92
2023-04-02T11:24:34.264Z,16.72
2023-04-02T11:25:36.498Z,17.03
2023-04-02T11:26:44.745Z,17.08
2023-04-02T11:27:46.889Z,17.01
2023-04-02T11:28:48.780Z,17.04
2023-04-02T11:30:20.022Z,16.85
2023-04-02T11:31:22.088Z,17.00
2023-04-02T11:32:24.334Z,16.65
2023-04-02T11:33:44.293Z,16.83
2023-04-02T11:34:56.360Z,17.11
2023-04-02T11:36:02.388Z,16.83
2023-04-02T11:37:09.361Z,17.16
2023-04-02T11:38:11.376Z,17.21
2023-04-02T11:39:17.517Z,17.32
2023-04-02T11:40:39.810Z,17.20
2023-04-02T11:42:05.016Z,17.16
2023-04-02T11:43:34.588Z,17.16
2023-04-02T11:44:36.535Z,17.07
2023-04-02T11:45:52.990Z,17.15
2023-04-02T11:47:16.270Z,16.99
2023-04-02T11:48:18.256Z,16.98
2023-04-02T11:49:40.929Z,16.96
2023-04-02T11:50:44.894Z,17.15
2023-04-02T11:51:52.273Z,17.09
2023-04-02T11:53:19.679Z,17.30
2023-04-02T11:54:28.227Z,17.08
2023-04-02T11:55:31.640Z,16.95
2023-04-02T11:56:54.527Z,16.97
2023-04-02T11:58:02.318Z,17.07
2023-04-02T11:59:11.316Z,17.02
2023-04-02T12:00:30.976Z,17.02
2023-04-02T12:02:06.770Z,17.31
2023-04-02T12:03:42.219Z,17.13
2023-04-02T12:04:53.054Z,16.78
2023-04-02T12:06:08.338Z,16.93
2023-04-02T12:07:12.979Z,16.89
2023-04-02T12:08:57.139Z,17.21
2023-04-02T12:10:02.900Z,16.86
2023-04-02T12:11:05.488Z,17.11
2023-04-02T12:12:37.988Z,17.28
2023-04-02T12:13:39.809Z,17.18
2023-04-02T12:14:51.822Z,17.05
2023-04-02T12:15:58.428Z,17.36
2023-04-02T12:17:00.520Z,17.16
2023-04-02T12:18:22.277Z,17.13
2023-04-02T12:19:25.920Z,17.38
2023-04-02T12:20:30.771Z,17.35
2023-04-02T12:21:32.580Z,17.32
2023-04-02T12:22:47.383Z,17.29
2023-04-02T12:23:51.868Z,17.37
2023-04-02T12:25:07.661Z,17.21
2023-04-02T12:26:46.443Z,17.09
2023-04-02T12:27:48.634Z,17.08
2023-04-02T12:28:50.481Z,17.23
2023-04-02T12:29:52.478Z,17.10
2023-04-02T12:31:04.979Z,17.07
2023-04-02T12:32:20.112Z,17.22
2023-04-02T12:33:37.495Z,17.31
2023-04-02T12:34:46.498Z,17.02
2023-04-02T12:35:53.334Z,16.81
2023-04-02T12:36:59.660Z,17.25
2023-04-02T12:38:02.220Z,16.92
2023-04-02T12:39:04.103Z,17.15
2023-04-02T12:40:17.731Z,16.93
2023-04-02T12:41:33.318Z,16.89
2023-04-02T12:42:37.238Z,17.19
2023-04-02T12:43:40.161Z,16.82
2023-04-02T12:44:49.263Z,17.13
2023-04-02T12:45:53.472Z,17.16
2023-04-02T12:46:57.203Z,17.04
2023-04-02T12:48:03.143Z,16.89
2023-04-02T12:49:08.494Z,17.15
2023-04-02T12:50:15.499Z,16.89
2023-04-02T12:51:17.647Z,17.16
2023-04-02T12:52:22.740Z,16.79
2023-04-02T12:53:29.557Z,16.76
2023-04-02T12:54:37.504Z,16.73
2023-04-02T12:55:39.445Z,16.68
2023-04-02T12:56:41.362Z,16.86
2023-04-02T12:57:46.028Z,17.12
2023-04-02T12:59:01.434Z,16.74
2023-04-02T13:00:21.738Z,16.59
2023-04-02T13:01:29.584Z,16.54
2023-04-02T13:02:42.702Z,16.43
2023-04-02T13:04:09.067Z,16.44
2023-04-02T13:05:11.508Z,16.72
2023-04-02T13:06:24.510Z,16.54
2023-04-02T13:07:29.588Z,16.67
2023-04-02T13:08:40.603Z,16.72
2023-04-02T13:09:49.098Z,16.41
2023-04-02T13:10:56.796Z,16.72
2023-04-02T13:11:59.123Z,16.69
2023-04-02T13:13:03.368Z,16.70
2023-04-02T13:14:08.075Z,16.62
2023-04-02T13:15:28.895Z,16.75
2023-04-02T13:16:38.448Z,16.53
2023-04-02T13:17:47.937Z,16.50
2023-04-02T13:18:50.272Z,16.42
2023-04-02T13:19:52.085Z,16.50
2023-04-02T13:20:59.357Z,16.96
2023-04-02T13:22:03.100Z,17.01
2023-04-02T13:23:25.195Z,16.45
2023-04-02T13:24:29.861Z,16.75
2023-04-02T13:25:36.320Z,16.42
2023-04-02T13:26:38.181Z,16.76
2023-04-02T13:27:40.023Z,16.88
2023-04-02T13:28:42.020Z,16.43
2023-04-02T13:29:43.985Z,16.82
2023-04-02T13:30:46.449Z,16.24
2023-04-02T13:31:48.785Z,16.76
2023-04-02T13:32:51.150Z,16.69
2023-04-02T13:33:53.092Z,17.01
2023-04-02T13:34:54.933Z,16.73
2023-04-02T13:35:56.760Z,16.78
2023-04-02T13:36:58.859Z,16.73
2023-04-02T13:38:03.113Z,16.36
2023-04-02T13:39:05.717Z,16.28
2023-04-02T13:40:09.465Z,16.38
2023-04-02T13:41:28.919Z,16.63
2023-04-02T13:42:31.002Z,16.33
2023-04-02T13:43:32.952Z,16.44
2023-04-02T13:44:37.600Z,16.36
2023-04-02T13:45:41.277Z,16.74
2023-04-02T13:46:43.417Z,16.66
2023-04-02T13:47:45.307Z,16.59
2023-04-02T13:48:47.314Z,16.57
2023-04-02T13:49:49.120Z,16.58
2023-04-02T13:50:52.062Z,16.52
2023-04-02T13:51:58.866Z,16.24
2023-04-02T13:53:09.677Z,16.50
2023-04-02T13:54:27.400Z,16.30
2023-04-02T13:55:35.062Z,16.53
2023-04-02T13:56:37.245Z,16.28
2023-04-02T13:57:39.316Z,16.18
2023-04-02T13:58:41.386Z,16.60
2023-04-02T13:59:43.223Z,16.49
2023-04-02T14:00:46.210Z,16.51
2023-04-02T14:01:50.284Z,16.55
2023-04-02T14:02:58.059Z,16.49
2023-04-02T14:04:00.681Z,16.18
2023-04-02T14:05:23.819Z,16.24
2023-04-02T14:06:35.758Z,16.56
2023-04-02T14:07:50.887Z,16.37
2023-04-02T14:09:01.739Z,16.08
2023-04-02T14:10:42.196Z,16.21
2023-04-02T14:12:14.028Z,16.30
2023-04-02T14:13:27.663Z,16.32
2023-04-02T14:14:49.109Z,16.41
2023-04-02T14:16:15.993Z,16.42
2023-04-02T14:17:20.422Z,16.19
2023-04-02T14:18:39.447Z,15.88
2023-04-02T14:20:13.394Z,16.39
2023-04-02T14:21:32.093Z,16.23
2023-04-02T14:22:55.084Z,16.01
2023-04-02T14:24:08.928Z,15.75
2023-04-02T14:25:43.388Z,16.23
2023-04-02T14:27:06.596Z,16.08
2023-04-02T14:28:27.488Z,16.49
2023-04-02T14:29:40.805Z,16.29
2023-04-02T14:31:01.450Z,16.07
2023-04-02T14:32:24.064Z,16.11
2023-04-02T14:33:28.751Z,16.27
2023-04-02T14:34:42.553Z,16.28
2023-04-02T14:35:47.160Z,16.22
2023-04-02T14:36:56.580Z,16.55
2023-04-02T14:38:06.233Z,16.48
2023-04-02T14:39:25.728Z,16.12
2023-04-02T14:40:35.584Z,16.12
2023-04-02T14:41:49.380Z,16.10
2023-04-02T14:42:58.167Z,16.12
2023-04-02T14:44:08.852Z,16.48
2023-04-02T14:45:43.769Z,16.42
2023-04-02T14:46:47.182Z,16.40
2023-04-02T14:47:57.673Z,16.13
2023-04-02T14:49:28.854Z,16.13
2023-04-02T14:50:37.627Z,16.19
2023-04-02T14:51:45.080Z,16.39
2023-04-02T14:52:52.577Z,16.13
2023-04-02T14:54:20.943Z,16.49
2023-04-02T14:55:38.125Z,16.16
2023-04-02T14:56:47.672Z,16.21
2023-04-02T14:57:53.652Z,16.08
2023-04-02T14:59:22.736Z,16.33
2023-04-02T15:00:27.916Z,16.58
2023-04-02T15:01:38.141Z,16.57
2023-04-02T15:02:51.611Z,16.32
2023-04-02T15:04:16.945Z,16.16
2023-04-02T15:05:42.715Z,16.44
2023-04-02T15:06:50.170Z,16.24
2023-04-02T15:08:06.417Z,16.31
2023-04-02T15:09:15.776Z,16.18
2023-04-02T15:10:45.276Z,16.45
2023-04-02T15:11:53.145Z,16.08
2023-04-02T15:12:57.116Z,16.06
2023-04-02T15:14:17.514Z,16.08